Time;durP1;ratioP1;P1;durP2;ratioP2;P2;SDS_P1;SDS_P2;PMS_P1;PMS_P2;Temp;Humidity;BMP_temperature;BMP_pressure;BME280_temperature;BME280_humidity;BME280_pressure;Samples;Min_cycle;Max_cycle;Signal;HPM_P1;HPM_P2
2022/08/16 00:01:19;;;;;;;26.65;13.55;;;;;;;;;;5094025;28;20020;-63
2022/08/16 00:03:45;;;;;;;21.25;14.05;;;;;;;;;;5094141;28;20453;-63
2022/08/16 00:06:11;;;;;;;22.40;15.27;;;;;;;;;;5075867;28;20031;-63
2022/08/16 00:08:37;;;;;;;19.98;14.65;;;;;;;;;;5093226;28;20538;-63
2022/08/16 00:11:08;;;;;;;21.67;14.75;;;;;;;;;;5094182;28;20024;-63
2022/08/16 00:13:34;;;;;;;20.70;14.50;;;;;;;;;;5075824;28;20021;-63
2022/08/16 00:16:00;;;;;;;22.77;15.48;;;;;;;;;;5094075;28;20032;-63
2022/08/16 00:18:26;;;;;;;21.58;16.23;;;;;;;;;;5093065;28;20043;-63
2022/08/16 00:20:52;;;;;;;22.35;15.77;;;;;;;;;;5093700;28;20024;-63
2022/08/16 00:23:18;;;;;;;19.58;15.00;;;;;;;;;;5093874;28;20016;-63
2022/08/16 00:25:44;;;;;;;19.80;14.45;;;;;;;;;;5093690;28;20024;-63
2022/08/16 00:28:10;;;;;;;20.80;16.25;;;;;;;;;;5092748;28;20515;-63
2022/08/16 00:30:36;;;;;;;21.02;15.55;;;;;;;;;;5093548;28;20051;-64
2022/08/16 00:33:03;;;;;;;21.83;14.80;;;;;;;;;;5093613;28;20028;-63
2022/08/16 00:35:32;;;;;;;20.88;14.60;;;;;;;;;;5093898;28;20020;-63
2022/08/16 00:38:01;;;;;;;23.85;14.50;;;;;;;;;;5092781;28;20056;-63
2022/08/16 00:40:39;;;;;;;19.80;15.20;;;;;;;;;;5093456;28;20095;-63
2022/08/16 00:43:07;;;;;;;20.50;15.82;;;;;;;;;;5093451;28;20028;-63
2022/08/16 00:45:36;;;;;;;22.15;16.77;;;;;;;;;;5075428;28;20020;-63
2022/08/16 00:48:06;;;;;;;20.15;15.50;;;;;;;;;;5092226;28;20438;-63
2022/08/16 00:50:37;;;;;;;23.83;14.88;;;;;;;;;;5093022;28;20094;-64
2022/08/16 00:53:08;;;;;;;23.35;15.23;;;;;;;;;;5092478;28;20423;-63
2022/08/16 00:55:35;;;;;;;21.00;15.63;;;;;;;;;;5092592;28;20031;-63
2022/08/16 00:58:01;;;;;;;22.33;15.35;;;;;;;;;;5092283;28;20024;-63
2022/08/16 01:00:29;;;;;;;21.00;16.70;;;;;;;;;;5093113;28;20103;-63
2022/08/16 01:02:56;;;;;;;19.10;14.82;;;;;;;;;;5093345;28;20024;-63
2022/08/16 01:05:23;;;;;;;23.50;15.15;;;;;;;;;;5093364;28;20020;-64
2022/08/16 01:07:49;;;;;;;22.30;14.63;;;;;;;;;;5074812;28;20031;-63
2022/08/16 01:10:15;;;;;;;19.65;15.38;;;;;;;;;;5093480;28;20024;-63
2022/08/16 01:12:41;;;;;;;22.15;14.95;;;;;;;;;;5093359;28;20027;-63
2022/08/16 01:15:07;;;;;;;20.98;15.02;;;;;;;;;;5093174;28;20036;-63
2022/08/16 01:17:34;;;;;;;20.52;15.13;;;;;;;;;;5092397;28;20391;-64
2022/08/16 01:20:01;;;;;;;21.35;15.93;;;;;;;;;;5093552;28;20028;-63
2022/08/16 01:22:27;;;;;;;19.40;15.90;;;;;;;;;;5092788;28;20659;-64
2022/08/16 01:24:56;;;;;;;20.27;15.27;;;;;;;;;;5093161;28;20043;-63
2022/08/16 01:27:24;;;;;;;20.27;15.00;;;;;;;;;;5092679;28;20024;-63
2022/08/16 01:29:54;;;;;;;19.77;14.80;;;;;;;;;;5092941;28;20028;-64
2022/08/16 01:32:20;;;;;;;21.25;16.13;;;;;;;;;;5092751;28;20512;-63
2022/08/16 01:34:47;;;;;;;20.60;13.98;;;;;;;;;;5092992;28;20052;-63
2022/08/16 01:37:13;;;;;;;25.77;15.32;;;;;;;;;;5073976;28;20067;-63
2022/08/16 01:39:40;;;;;;;22.58;15.63;;;;;;;;;;5074648;28;20020;-63
2022/08/16 01:42:07;;;;;;;20.98;14.40;;;;;;;;;;5092294;28;20039;-63
2022/08/16 01:44:34;;;;;;;20.90;15.50;;;;;;;;;;5092452;28;20032;-63
2022/08/16 01:47:00;;;;;;;20.35;14.77;;;;;;;;;;5099640;28;20129;-63
2022/08/16 01:49:46;;;;;;;22.65;16.08;;;;;;;;;;5096562;28;20028;-64
2022/08/16 01:52:14;;;;;;;21.63;14.95;;;;;;;;;;5092998;28;20028;-63
2022/08/16 01:54:40;;;;;;;;;;;;;;;;;;5093417;28;20027;-64
2022/08/16 01:57:08;;;;;;;21.58;15.18;;;;;;;;;;5092307;28;20345;-63
2022/08/16 01:59:34;;;;;;;21.38;15.35;;;;;;;;;;5092914;28;20116;-63
2022/08/16 02:02:00;;;;;;;21.23;14.88;;;;;;;;;;5096265;28;20017;-63
2022/08/16 02:04:27;;;;;;;21.25;16.23;;;;;;;;;;5096040;28;20476;-63
2022/08/16 02:06:53;;;;;;;21.98;17.02;;;;;;;;;;5095913;28;20442;-63
2022/08/16 02:09:21;;;;;;;21.13;15.60;;;;;;;;;;5095514;28;20028;-63
2022/08/16 02:11:49;;;;;;;20.70;15.32;;;;;;;;;;5096000;28;20142;-63
2022/08/16 02:14:15;;;;;;;22.17;15.43;;;;;;;;;;5096118;28;20095;-63
2022/08/16 02:16:43;;;;;;;22.90;16.50;;;;;;;;;;5095677;28;20024;-63
2022/08/16 02:19:09;;;;;;;22.58;16.73;;;;;;;;;;5095424;28;20046;-63
2022/08/16 02:21:35;;;;;;;23.63;16.73;;;;;;;;;;5095930;28;20039;-63
2022/08/16 02:24:01;;;;;;;24.02;16.65;;;;;;;;;;5095998;28;20074;-64
2022/08/16 02:26:28;;;;;;;20.75;15.70;;;;;;;;;;5095874;28;20511;-63
2022/08/16 02:28:55;;;;;;;19.92;16.35;;;;;;;;;;5095200;28;20089;-63
2022/08/16 02:31:21;;;;;;;20.48;15.45;;;;;;;;;;5077750;28;20028;-63
2022/08/16 02:33:47;;;;;;;20.63;15.48;;;;;;;;;;5095889;28;20085;-63
2022/08/16 02:36:14;;;;;;;21.85;15.98;;;;;;;;;;5095417;28;20028;-63
2022/08/16 02:38:40;;;;;;;20.33;15.38;;;;;;;;;;5094382;28;20419;-63
2022/08/16 02:41:07;;;;;;;22.25;16.08;;;;;;;;;;5095731;28;20027;-63
2022/08/16 02:43:34;;;;;;;20.95;15.30;;;;;;;;;;5077366;28;20032;-61
2022/08/16 02:46:00;;;;;;;19.65;15.13;;;;;;;;;;5077436;28;20028;-62
2022/08/16 02:48:27;;;;;;;20.35;15.52;;;;;;;;;;5095014;28;20100;-63
2022/08/16 02:50:54;;;;;;;21.90;15.05;;;;;;;;;;5095537;28;20482;-63
2022/08/16 02:53:20;;;;;;;21.00;15.27;;;;;;;;;;5095603;28;20051;-65
2022/08/16 02:55:46;;;;;;;20.52;14.48;;;;;;;;;;5077638;28;20063;-64
2022/08/16 02:58:12;;;;;;;21.05;15.45;;;;;;;;;;5094610;28;20119;-61
2022/08/16 03:00:38;;;;;;;21.50;15.50;;;;;;;;;;5095502;28;20020;-62
2022/08/16 03:03:05;;;;;;;21.20;14.70;;;;;;;;;;5095574;28;20082;-62
2022/08/16 03:05:31;;;;;;;21.17;15.35;;;;;;;;;;5095622;28;20529;-63
2022/08/16 03:07:57;;;;;;;20.27;15.60;;;;;;;;;;5095020;28;20035;-63
2022/08/16 03:10:23;;;;;;;22.92;15.77;;;;;;;;;;5094595;28;20030;-62
2022/08/16 03:12:49;;;;;;;20.15;15.18;;;;;;;;;;5095088;28;20526;-63
2022/08/16 03:15:16;;;;;;;21.63;15.88;;;;;;;;;;5095255;28;20038;-63
2022/08/16 03:17:42;;;;;;;20.60;16.00;;;;;;;;;;5094077;28;20081;-62
2022/08/16 03:20:09;;;;;;;21.10;15.38;;;;;;;;;;5094925;28;20035;-63
2022/08/16 03:22:36;;;;;;;21.98;15.75;;;;;;;;;;5094276;28;20031;-62
2022/08/16 03:25:04;;;;;;;19.08;15.40;;;;;;;;;;5094828;28;20098;-62
2022/08/16 03:27:31;;;;;;;20.63;16.90;;;;;;;;;;5093530;28;20360;-62
2022/08/16 03:29:57;;;;;;;21.58;15.98;;;;;;;;;;5094847;28;20027;-63
2022/08/16 03:32:23;;;;;;;20.02;14.93;;;;;;;;;;5094585;28;20031;-62
2022/08/16 03:34:49;;;;;;;23.77;15.82;;;;;;;;;;5094623;28;20103;-62
2022/08/16 03:37:15;;;;;;;20.05;15.23;;;;;;;;;;5093537;28;20111;-62
2022/08/16 03:39:41;;;;;;;22.23;15.88;;;;;;;;;;5094292;28;20016;-63
2022/08/16 03:42:07;;;;;;;20.02;15.55;;;;;;;;;;5094042;28;20712;-63
2022/08/16 03:44:33;;;;;;;20.42;15.73;;;;;;;;;;5094551;28;20020;-63
2022/08/16 03:47:01;;;;;;;20.48;15.43;;;;;;;;;;5094525;28;20054;-62
2022/08/16 03:49:27;;;;;;;24.93;16.50;;;;;;;;;;5093236;28;20012;-63
2022/08/16 03:51:53;;;;;;;21.90;16.48;;;;;;;;;;5094336;28;20020;-63
2022/08/16 03:54:19;;;;;;;23.15;16.33;;;;;;;;;;5094131;28;20476;-61
2022/08/16 03:56:45;;;;;;;22.25;16.33;;;;;;;;;;5094054;28;20107;-63
2022/08/16 03:59:12;;;;;;;20.35;15.57;;;;;;;;;;5093446;28;20016;-62
2022/08/16 04:01:38;;;;;;;19.52;15.20;;;;;;;;;;5094153;28;20076;-63
2022/08/16 04:04:06;;;;;;;21.95;17.10;;;;;;;;;;5094002;28;20024;-63
2022/08/16 04:06:32;;;;;;;21.42;16.00;;;;;;;;;;5093832;28;20020;-62
2022/08/16 04:08:58;;;;;;;20.42;16.45;;;;;;;;;;5092360;28;20028;-63
2022/08/16 04:11:24;;;;;;;21.08;17.42;;;;;;;;;;5093805;28;20051;-62
2022/08/16 04:13:50;;;;;;;22.60;16.33;;;;;;;;;;5093824;28;20024;-64
2022/08/16 04:16:16;;;;;;;21.15;16.38;;;;;;;;;;5093862;28;20016;-62
2022/08/16 04:18:43;;;;;;;21.45;16.63;;;;;;;;;;5092902;28;20515;-63
2022/08/16 04:21:09;;;;;;;21.33;17.40;;;;;;;;;;5095142;28;20024;-64
2022/08/16 04:23:37;;;;;;;20.67;15.70;;;;;;;;;;5102771;28;20476;-62
2022/08/16 04:26:04;;;;;;;20.65;16.25;;;;;;;;;;5100196;28;20024;-62
2022/08/16 04:28:30;;;;;;;20.80;16.27;;;;;;;;;;5093330;28;20051;-62
2022/08/16 04:30:56;;;;;;;20.80;16.67;;;;;;;;;;5093553;28;20024;-62
2022/08/16 04:33:22;;;;;;;21.23;15.32;;;;;;;;;;5074868;28;20119;-61
2022/08/16 04:35:47;;;;;;;21.80;15.70;;;22.30;99.90;;;;;;5093567;28;20043;-62
2022/08/16 04:38:14;;;;;;;20.65;15.63;;;19.80;99.90;;;;;;5092403;28;20020;-62
2022/08/16 04:40:39;;;;;;;21.02;16.02;;;19.60;99.90;;;;;;5092872;28;20048;-62
2022/08/16 04:43:05;;;;;;;19.52;15.50;;;19.50;99.90;;;;;;5093167;28;20028;-63
2022/08/16 04:45:31;;;;;;;20.10;15.70;;;19.50;99.90;;;;;;5093592;28;20020;-62
2022/08/16 04:47:58;;;;;;;21.83;16.23;;;19.50;99.90;;;;;;5092385;28;20051;-62
2022/08/16 04:50:26;;;;;;;20.73;15.45;;;19.50;99.90;;;;;;5093783;28;20055;-63
2022/08/16 04:52:53;;;;;;;21.65;16.23;;;19.50;99.90;;;;;;5092579;28;20073;-63
2022/08/16 04:55:22;;;;;;;19.77;15.27;;;19.50;99.90;;;;;;5092705;28;20448;-63
2022/08/16 04:57:49;;;;;;;;;;;19.50;99.90;;;;;;5092206;28;20024;-52
2022/08/16 05:00:19;;;;;;;22.52;15.23;;;19.50;99.90;;;;;;5092914;28;19947;-50
2022/08/16 05:02:47;;;;;;;22.10;16.38;;;19.50;99.90;;;;;;5100399;28;20039;-50
2022/08/16 05:05:13;;;;;;;21.65;16.30;;;19.50;99.90;;;;;;5107872;28;20062;-56
2022/08/16 05:07:39;;;;;;;20.48;15.90;;;19.50;99.90;;;;;;5092213;28;20046;-51
2022/08/16 05:10:07;;;;;;;20.58;15.27;;;19.50;99.90;;;;;;5102832;28;20023;-51
2022/08/16 05:12:33;;;;;;;20.27;15.52;;;19.50;99.90;;;;;;5112928;28;20081;-52
2022/08/16 05:14:59;;;;;;;22.35;16.30;;;19.50;99.90;;;;;;5112948;28;20027;-54
2022/08/16 05:17:25;;;;;;;21.00;15.43;;;19.40;99.90;;;;;;5111495;28;20115;-53
2022/08/16 05:19:51;;;;;;;20.10;15.93;;;19.50;99.90;;;;;;5092006;28;20036;-49
2022/08/16 05:22:17;;;;;;;21.90;17.33;;;19.50;99.90;;;;;;5092079;28;20491;-52
2022/08/16 05:24:43;;;;;;;20.30;16.00;;;19.50;99.90;;;;;;5091952;28;20081;-51
2022/08/16 05:27:09;;;;;;;21.95;16.38;;;19.60;99.90;;;;;;5091841;28;20112;-53
2022/08/16 05:29:35;;;;;;;21.17;15.82;;;19.60;99.90;;;;;;5090850;28;20123;-55
2022/08/16 05:32:00;;;;;;;24.75;15.50;;;19.80;99.90;;;;;;5091911;28;20372;-54
2022/08/16 05:34:27;;;;;;;23.80;15.82;;;19.90;99.90;;;;;;5092971;28;20020;-55
2022/08/16 05:36:56;;;;;;;19.67;15.50;;;20.00;99.90;;;;;;5096291;28;20043;-53
2022/08/16 05:39:22;;;;;;;;;;;20.10;99.90;;;;;;5096096;28;20028;-50
2022/08/16 05:41:49;;;;;;;19.92;16.17;;;20.10;99.90;;;;;;5095826;28;20007;-54
2022/08/16 05:44:15;;;;;;;23.30;15.90;;;20.20;99.90;;;;;;5095803;28;20103;-57
2022/08/16 05:46:41;;;;;;;20.50;16.10;;;20.20;99.90;;;;;;5122637;22;20047;-62
2022/08/16 05:49:07;;;;;;;20.55;15.65;;;20.30;99.90;;;;;;5114612;28;20047;-59
2022/08/16 05:51:33;;;;;;;22.65;15.85;;;20.30;99.90;;;;;;5097101;28;20051;-60
2022/08/16 05:53:58;;;;;;;19.10;14.98;;;20.20;99.90;;;;;;5115882;28;20120;-58
2022/08/16 05:56:24;;;;;;;20.67;16.63;;;20.20;99.90;;;;;;5106207;28;20024;-58
2022/08/16 05:58:50;;;;;;;22.33;16.70;;;20.20;99.90;;;;;;5114468;28;20031;-62
2022/08/16 06:01:15;;;;;;;20.33;15.75;;;20.10;99.90;;;;;;5115775;28;20099;-61
2022/08/16 06:03:41;;;;;;;20.23;16.33;;;19.90;99.90;;;;;;5098132;28;20366;-59
2022/08/16 06:06:07;;;;;;;21.75;15.63;;;20.00;99.90;;;;;;5093443;28;20069;-59
2022/08/16 06:08:32;;;;;;;22.50;17.10;;;19.90;99.90;;;;;;5094284;28;20024;-59
2022/08/16 06:10:58;;;;;;;21.88;16.05;;;19.90;99.90;;;;;;5093914;28;20147;-59
2022/08/16 06:13:24;;;;;;;20.88;15.98;;;19.90;99.90;;;;;;5095059;28;20016;-60
2022/08/16 06:15:50;;;;;;;21.48;16.77;;;;;;;;;;5094921;28;20048;-62
2022/08/16 06:18:18;;;;;;;23.48;17.10;;;;;;;;;;5094011;28;20020;-63
2022/08/16 06:20:43;;;;;;;21.00;17.25;;;19.90;99.90;;;;;;5094748;28;20020;-60
2022/08/16 06:23:09;;;;;;;20.05;15.82;;;19.90;99.90;;;;;;5093240;28;20031;-57
2022/08/16 06:25:36;;;;;;;21.20;16.63;;;19.90;99.90;;;;;;5094858;28;20063;-53
2022/08/16 06:28:03;;;;;;;21.85;16.30;;;19.90;99.90;;;;;;5092120;28;20048;-59
2022/08/16 06:30:31;;;;;;;20.85;16.75;;;20.00;99.90;;;;;;5094469;28;20527;-57
2022/08/16 06:32:56;;;;;;;20.53;16.20;;;20.20;99.90;;;;;;5094446;28;20545;-61
2022/08/16 06:35:23;;;;;;;22.23;16.27;;;20.20;99.90;;;;;;5094126;28;20032;-61
2022/08/16 06:37:48;;;;;;;25.00;16.17;;;20.30;99.90;;;;;;5094090;28;20032;-60
2022/08/16 06:40:14;;;;;;;22.52;16.98;;;20.40;99.90;;;;;;5094520;28;20495;-60
2022/08/16 06:42:40;;;;;;;21.15;17.38;;;20.50;99.90;;;;;;5094453;28;20051;-61
2022/08/16 06:45:06;;;;;;;23.58;16.80;;;20.60;99.90;;;;;;5093455;28;20017;-60
2022/08/16 06:47:32;;;;;;;21.90;16.63;;;20.60;99.90;;;;;;5093562;28;20028;-61
2022/08/16 06:49:57;;;;;;;21.33;16.60;;;20.60;99.90;;;;;;5094230;28;20028;-60
2022/08/16 06:52:23;;;;;;;21.92;17.08;;;20.70;99.90;;;;;;5094078;28;20032;-59
2022/08/16 06:54:49;;;;;;;25.05;16.92;;;20.80;99.90;;;;;;5093721;28;20051;-61
2022/08/16 06:57:16;;;;;;;22.58;16.08;;;20.90;99.90;;;;;;5092088;28;20073;-53
2022/08/16 06:59:42;;;;;;;26.27;17.47;;;21.00;99.90;;;;;;5094223;28;20047;-61
2022/08/16 07:02:08;;;;;;;21.10;15.57;;;21.10;99.90;;;;;;5094087;28;20024;-61
2022/08/16 07:04:34;;;;;;;21.77;16.17;;;21.20;99.90;;;;;;5112449;28;20471;-61
2022/08/16 07:07:01;;;;;;;20.48;15.65;;;;;;;;;;5114587;28;20015;-60
2022/08/16 07:09:27;;;;;;;24.98;15.75;;;;;;;;;;5113726;28;20028;-61
2022/08/16 07:11:53;;;;;;;20.27;16.17;;;;;;;;;;5114323;28;20027;-62
2022/08/16 07:14:19;;;;;;;20.85;15.23;;;;;;;;;;5114349;28;20019;-61
2022/08/16 07:16:45;;;;;;;21.52;16.38;;;;;;;;;;5114179;28;20022;-61
2022/08/16 07:19:11;;;;;;;22.92;15.38;;;;;;;;;;5113176;28;20031;-59
2022/08/16 07:21:40;;;;;;;20.25;14.93;;;;;;;;;;5113962;28;20041;-60
2022/08/16 07:24:06;;;;;;;21.17;15.48;;;;;;;;;;5112716;28;20020;-59
2022/08/16 07:26:32;;;;;;;24.60;16.25;;;;;;;;;;5114147;28;20024;-60
2022/08/16 07:28:59;;;;;;;22.42;15.68;;;;;;;;;;5112872;28;20047;-61
2022/08/16 07:31:25;;;;;;;21.45;15.30;;;;;;;;;;5113681;28;20341;-59
2022/08/16 07:33:51;;;;;;;21.15;17.00;;;;;;;;;;5113841;28;20039;-60
2022/08/16 07:36:17;;;;;;;22.50;16.00;;;;;;;;;;5113918;28;20073;-60
2022/08/16 07:38:44;;;;;;;20.17;15.50;;;;;;;;;;5113096;28;20032;-54
2022/08/16 07:41:10;;;;;;;19.33;15.38;;;;;;;;;;5113892;28;20020;-61
2022/08/16 07:43:36;;;;;;;21.85;16.40;;;;;;;;;;5113739;28;20510;-62
2022/08/16 07:46:02;;;;;;;20.75;15.57;;;;;;;;;;5113366;28;20031;-58
2022/08/16 07:48:28;;;;;;;21.55;16.35;;;;;;;;;;5112813;28;20391;-62
2022/08/16 07:50:54;;;;;;;22.65;17.17;;;;;;;;;;5113497;28;20026;-61
2022/08/16 07:53:21;;;;;;;20.90;15.43;;;;;;;;;;5112258;28;20120;-60
2022/08/16 07:55:47;;;;;;;21.35;15.95;;;;;;;;;;5113392;28;20551;-63
2022/08/16 07:58:14;;;;;;;21.88;16.20;;;;;;;;;;5111538;28;20031;-64
2022/08/16 08:00:40;;;;;;;20.65;16.73;;;;;;;;;;5112963;28;20442;-62
2022/08/16 08:03:06;;;;;;;20.67;15.13;;;;;;;;;;5113437;28;20042;-62
2022/08/16 08:05:32;;;;;;;20.23;16.05;;;;;;;;;;5111748;28;20084;-62
2022/08/16 08:07:58;;;;;;;20.40;16.85;;;;;;;;;;5112595;28;20098;-62
2022/08/16 08:10:24;;;;;;;22.30;16.88;;;;;;;;;;5112855;28;20019;-62
2022/08/16 08:12:52;;;;;;;24.75;17.55;;;;;;;;;;5113383;28;20024;-62
2022/08/16 08:15:18;;;;;;;22.25;16.15;;;;;;;;;;5113067;28;20050;-61
2022/08/16 08:17:44;;;;;;;23.10;17.73;;;;;;;;;;5112414;28;20027;-63
2022/08/16 08:20:13;;;;;;;21.63;17.08;;;;;;;;;;5111934;28;20031;-62
2022/08/16 08:22:39;;;;;;;;;;;;;;;;;;5112535;28;20391;-62
2022/08/16 08:25:05;;;;;;;19.50;16.20;;;;;;;;;;5111466;28;19904;-61
2022/08/16 08:27:31;;;;;;;22.48;15.48;;;;;;;;;;5097278;28;20035;-62
2022/08/16 08:29:58;;;;;;;21.30;15.90;;;;;;;;;;5092522;28;20480;-61
2022/08/16 08:32:27;;;;;;;21.65;16.05;;;;;;;;;;5092619;28;20024;-62
2022/08/16 08:34:53;;;;;;;20.95;15.40;;;;;;;;;;5092714;28;20400;-62
2022/08/16 08:37:20;;;;;;;18.77;15.60;;;;;;;;;;5091715;28;20054;-62
2022/08/16 08:39:46;;;;;;;22.00;15.50;;;;;;;;;;5092378;28;20076;-59
2022/08/16 08:42:14;;;;;;;19.50;15.30;;;;;;;;;;5092233;28;20024;-62
2022/08/16 08:44:40;;;;;;;21.47;17.10;;;;;;;;;;5092176;28;20021;-59
2022/08/16 08:47:07;;;;;;;20.15;16.05;;;;;;;;;;5092244;28;20266;-62
2022/08/16 08:49:33;;;;;;;20.65;15.13;;;;;;;;;;5091972;28;20016;-62
2022/08/16 08:51:59;;;;;;;19.90;15.95;;;;;;;;;;5092233;28;20115;-62
2022/08/16 08:54:25;;;;;;;20.25;15.55;;;;;;;;;;5091517;28;20081;-62
2022/08/16 08:56:52;;;;;;;21.23;15.98;;;;;;;;;;4749179;28;10000537;-58
2022/08/16 08:59:19;;;;;;;21.17;15.70;;;;;;;;;;5088982;28;20031;-61
2022/08/16 09:01:46;;;;;;;19.55;15.40;;;;;;;;;;4745869;28;9999875;-60
2022/08/16 09:04:12;;;;;;;21.67;16.08;;;;;;;;;;5108589;28;20039;-61
2022/08/16 09:06:40;;;;;;;20.40;15.70;;;;;;;;;;5108586;28;20028;-60
2022/08/16 09:09:08;;;;;;;20.92;15.38;;;;;;;;;;5107676;28;20031;-62
2022/08/16 09:11:35;;;;;;;19.67;15.87;;;;;;;;;;5107980;28;20040;-61
2022/08/16 09:14:01;;;;;;;20.95;16.10;;;;;;;;;;5106379;28;20039;-60
2022/08/16 09:16:27;;;;;;;23.85;16.98;;;;;;;;;;5109160;28;20027;-61
2022/08/16 09:18:55;;;;;;;18.67;15.48;;;;;;;;;;5109168;28;20495;-64
2022/08/16 09:21:21;;;;;;;20.42;15.68;;;;;;;;;;5111706;28;20015;-61
2022/08/16 09:23:47;;;;;;;21.58;16.48;;;;;;;;;;5110749;28;20484;-59
2022/08/16 09:26:17;;;;;;;20.02;16.00;;;;;;;;;;5112031;28;20372;-61
2022/08/16 09:28:44;;;;;;;22.23;16.98;;;;;;;;;;5111233;28;20028;-65
2022/08/16 09:31:10;;;;;;;22.48;15.73;;;;;;;;;;5111884;28;20220;-64
2022/08/16 09:33:36;;;;;;;19.33;15.35;;;;;;;;;;5112591;28;20020;-65
2022/08/16 09:36:03;;;;;;;21.45;15.57;;;;;;;;;;5112096;28;20460;-62
2022/08/16 09:38:29;;;;;;;20.48;16.48;;;;;;;;;;5112129;28;20095;-63
2022/08/16 09:40:56;;;;;;;23.25;16.77;;;;;;;;;;5110619;28;20019;-62
2022/08/16 09:43:24;;;;;;;19.63;16.38;;;;;;;;;;4748998;28;10000133;-63
2022/08/16 09:45:50;;;;;;;21.98;17.13;;;;;;;;;;5087007;28;20028;-62
2022/08/16 09:48:17;;;;;;;21.27;17.27;;;;;;;;;;5087980;28;20028;-63
2022/08/16 09:50:43;;;;;;;19.40;16.25;;;;;;;;;;5086819;28;20024;-63
2022/08/16 09:53:17;;;;;;;21.08;16.42;;;;;;;;;;5088314;28;20036;-65
2022/08/16 09:55:48;;;;;;;18.02;15.73;;;;;;;;;;5087938;28;20024;-63
2022/08/16 09:58:14;;;;;;;19.95;15.82;;;;;;;;;;5106699;28;20062;-66
2022/08/16 10:00:40;;;;;;;19.65;16.58;;;;;;;;;;5107276;28;20069;-66
2022/08/16 10:03:07;;;;;;;21.83;16.20;;;;;;;;;;5109337;28;20023;-65
2022/08/16 10:05:36;;;;;;;20.40;16.75;;;;;;;;;;5107475;28;20035;-65
2022/08/16 10:08:03;;;;;;;19.83;16.55;;;;;;;;;;5107662;28;20016;-67
2022/08/16 10:10:29;;;;;;;20.25;16.45;;;;;;;;;;5105642;28;20418;-64
2022/08/16 10:13:13;;;;;;;20.95;17.25;;;;;;;;;;5101804;28;20032;-63
2022/08/16 10:15:44;;;;;;;20.52;15.73;;;;;;;;;;5090184;28;20035;-66
2022/08/16 10:18:11;;;;;;;21.45;16.30;;;;;;;;;;5090299;28;20027;-66
2022/08/16 10:20:42;;;;;;;20.73;16.58;;;;;;;;;;5092179;28;20024;-65
2022/08/16 10:23:11;;;;;;;20.85;15.35;;;;;;;;;;5095030;28;20161;-64
2022/08/16 10:25:38;;;;;;;;;;;;;;;;;;5095100;28;20031;-64
2022/08/16 10:28:04;;;;;;;19.67;15.85;;;;;;;;;;4755222;28;9999594;-64
2022/08/16 10:30:30;;;;;;;18.60;15.55;;;;;;;;;;5113685;28;20031;-62
2022/08/16 10:32:57;;;;;;;20.92;16.25;;;;;;;;;;5114515;28;20024;-61
2022/08/16 10:35:23;;;;;;;20.52;15.63;;;;;;;;;;5113600;28;20019;-61
2022/08/16 10:37:50;;;;;;;19.48;16.10;;;;;;;;;;5112832;28;20047;-60
2022/08/16 10:40:16;;;;;;;19.88;15.95;;;;;;;;;;5114508;28;20043;-63
2022/08/16 10:42:42;;;;;;;22.30;16.25;;;;;;;;;;5114798;28;20020;-62
2022/08/16 10:45:08;;;;;;;21.17;16.83;;;;;;;;;;5112984;28;20015;-61
2022/08/16 10:47:34;;;;;;;21.20;15.63;;;;;;;;;;5114111;28;20473;-62
2022/08/16 10:50:01;;;;;;;21.85;15.98;;;;;;;;;;5113123;28;20554;-57
2022/08/16 10:52:27;;;;;;;19.73;15.93;;;;;;;;;;5114450;28;20031;-60
2022/08/16 10:54:53;;;;;;;20.40;16.25;;;;;;;;;;5114347;28;20102;-62
2022/08/16 10:57:19;;;;;;;18.73;15.30;;;;;;;;;;5113268;28;20088;-63
2022/08/16 10:59:45;;;;;;;22.27;15.85;;;;;;;;;;5114742;28;20024;-60
2022/08/16 11:02:11;;;;;;;17.90;15.43;;;;;;;;;;5114740;28;20019;-63
2022/08/16 11:04:37;;;;;;;19.40;15.52;;;;;;;;;;5114409;28;20020;-63
2022/08/16 11:07:04;;;;;;;22.75;16.15;;;;;;;;;;5114338;28;20485;-64
2022/08/16 11:09:30;;;;;;;20.08;16.15;;;;;;;;;;5113632;28;20043;-61
2022/08/16 11:11:56;;;;;;;21.15;16.30;;;;;;;;;;5113609;28;20023;-64
2022/08/16 11:14:23;;;;;;;20.35;16.60;;;;;;;;;;5114443;28;20028;-63
2022/08/16 11:16:49;;;;;;;19.42;15.98;;;;;;;;;;5114622;28;20020;-64
2022/08/16 11:19:16;;;;;;;21.05;16.40;;;;;;;;;;5113384;28;20027;-64
2022/08/16 11:21:43;;;;;;;21.23;16.77;;;;;;;;;;5113244;28;20019;-64
2022/08/16 11:24:09;;;;;;;19.23;15.83;;;;;;;;;;5114073;28;20023;-64
2022/08/16 11:26:35;;;;;;;20.60;15.30;;;;;;;;;;5114019;28;20022;-64
2022/08/16 11:29:01;;;;;;;19.98;15.80;;;;;;;;;;5113254;28;20492;-64
2022/08/16 11:31:27;;;;;;;21.38;16.20;;;;;;;;;;5113650;28;20019;-64
2022/08/16 11:33:53;;;;;;;22.58;17.15;;;;;;;;;;5112588;28;20024;-64
2022/08/16 11:36:19;;;;;;;19.77;16.90;;;;;;;;;;5113666;28;20591;-63
2022/08/16 11:38:46;;;;;;;21.88;16.52;;;;;;;;;;5113164;28;20034;-64
2022/08/16 11:41:12;;;;;;;19.65;16.08;;;;;;;;;;5112264;28;20092;-65
2022/08/16 11:43:40;;;;;;;21.38;16.58;;;;;;;;;;5113755;28;20030;-65
2022/08/16 11:46:11;;;;;;;19.67;16.15;;;;;;;;;;5113665;28;20376;-64
2022/08/16 11:48:37;;;;;;;18.83;15.85;;;;;;;;;;5117509;22;20075;-65
2022/08/16 11:51:04;;;;;;;19.85;15.40;;;;;;;;;;5092615;28;20031;-64
2022/08/16 11:53:31;;;;;;;20.02;16.52;;;;;;;;;;5094713;28;20024;-64
2022/08/16 11:55:57;;;;;;;19.67;16.23;;;;;;;;;;5094854;28;20078;-65
2022/08/16 11:58:25;;;;;;;18.83;16.20;;;;;;;;;;5094380;28;20039;-67
2022/08/16 12:00:51;;;;;;;20.83;15.45;;;;;;;;;;5092353;28;20442;-65
2022/08/16 12:03:18;;;;;;;19.65;16.13;;;;;;;;;;5092260;28;20404;-63
2022/08/16 12:05:44;;;;;;;22.17;16.13;;;;;;;;;;5093630;28;20055;-65
2022/08/16 12:08:11;;;;;;;19.67;16.10;;;;;;;;;;5092397;28;20024;-64
2022/08/16 12:10:38;;;;;;;20.33;16.48;;;;;;;;;;5093259;28;20400;-65
2022/08/16 12:13:04;;;;;;;19.38;15.90;;;;;;;;;;5093094;28;20046;-65
2022/08/16 12:15:31;;;;;;;18.38;16.00;;;;;;;;;;5093006;28;20112;-66
2022/08/16 12:17:57;;;;;;;19.00;15.48;;;;;;;;;;5090681;28;20027;-66
2022/08/16 12:20:26;;;;;;;18.67;16.10;;;;;;;;;;5092937;28;20099;-64
2022/08/16 12:22:53;;;;;;;20.20;16.75;;;;;;;;;;5093043;28;20093;-64
2022/08/16 12:25:19;;;;;;;19.00;15.60;;;;;;;;;;5093000;28;20062;-66
2022/08/16 12:27:47;;;;;;;21.05;16.10;;;;;;;;;;5090687;28;20020;-66
2022/08/16 12:30:15;;;;;;;18.25;16.00;;;;;;;;;;5091524;28;20139;-66
2022/08/16 12:32:41;;;;;;;22.02;16.15;;;;;;;;;;5092931;28;20571;-65
2022/08/16 12:35:08;;;;;;;18.58;15.93;;;;;;;;;;5091575;28;20016;-66
2022/08/16 12:37:35;;;;;;;21.90;16.65;;;;;;;;;;5090869;28;20055;-65
2022/08/16 12:40:01;;;;;;;20.70;16.75;;;;;;;;;;5092791;28;20020;-65
2022/08/16 12:42:28;;;;;;;19.75;17.05;;;;;;;;;;5092622;28;20081;-66
2022/08/16 12:44:54;;;;;;;20.23;16.42;;;;;;;;;;5091596;28;20035;-64
2022/08/16 12:50:06;;;;;;;20.70;17.27;;;;;;;;;;5086612;28;20031;-65
2022/08/16 12:52:32;;;;;;;18.50;16.42;;;;;;;;;;5079177;28;20407;-64
2022/08/16 12:54:58;;;;;;;20.42;15.93;;;;;;;;;;5089254;28;20078;-64
2022/08/16 12:57:24;;;;;;;19.20;16.50;;;;;;;;;;5087700;28;20038;-65
2022/08/16 12:59:51;;;;;;;19.58;16.13;;;;;;;;;;5087161;28;20028;-65
2022/08/16 13:02:18;;;;;;;19.27;16.60;;;;;;;;;;5089594;28;20392;-65
2022/08/16 13:04:44;;;;;;;18.38;15.95;;;;;;;;;;5089261;28;20369;-65
2022/08/16 13:07:12;;;;;;;20.13;16.45;;;;;;;;;;5088313;28;20051;-64
2022/08/16 13:09:47;;;;;;;;;;;;;;;;;;5089172;28;20051;-64
2022/08/16 13:12:22;;;;;;;19.60;15.93;;;;;;;;;;5088741;28;19904;-64
2022/08/16 13:14:49;;;;;;;21.52;16.20;;;;;;;;;;5089137;28;20027;-65
2022/08/16 13:17:18;;;;;;;23.73;17.63;;;;;;;;;;5089006;28;20025;-64
2022/08/16 13:19:44;;;;;;;26.35;17.10;;;;;;;;;;5088673;28;20728;-65
2022/08/16 13:22:10;;;;;;;19.52;17.10;;;;;;;;;;5088518;28;20020;-65
2022/08/16 13:24:36;;;;;;;22.75;16.77;;;;;;;;;;5088169;28;20028;-65
2022/08/16 13:27:02;;;;;;;19.50;16.35;;;;;;;;;;5088506;28;20150;-65
2022/08/16 13:29:28;;;;;;;19.70;15.98;;;;;;;;;;5087568;28;20023;-64
2022/08/16 13:31:55;;;;;;;21.00;16.77;;;;;;;;;;5087666;28;20449;-64
2022/08/16 13:34:22;;;;;;;19.15;15.90;;;;;;;;;;5088146;28;20412;-62
2022/08/16 13:36:48;;;;;;;18.60;15.95;;;;;;;;;;5090747;28;20058;-64
2022/08/16 13:39:14;;;;;;;19.15;16.65;;;;;;;;;;5090105;28;20024;-62
2022/08/16 13:41:40;;;;;;;20.02;16.60;;;;;;;;;;5091575;28;20476;-62
2022/08/16 13:44:06;;;;;;;20.17;16.15;;;;;;;;;;5092384;28;20073;-63
2022/08/16 13:46:33;;;;;;;17.88;15.73;;;;;;;;;;5091354;28;20020;-62
2022/08/16 13:48:59;;;;;;;18.48;15.85;;;;;;;;;;5090031;28;20028;-61
2022/08/16 13:51:26;;;;;;;18.95;14.73;;;;;;;;;;5089945;28;20027;-62
2022/08/16 13:53:54;;;;;;;19.17;15.18;;;;;;;;;;5091726;28;20051;-64
2022/08/16 13:56:20;;;;;;;19.30;15.27;;;;;;;;;;5093629;28;20032;-64